sensor_id;sensor_type;location;lat;lon;timestamp;P1;durP1;ratioP1;P2;durP2;ratioP2
4186;SDS011;2107;52.306;10.484;2023-02-28T00:01:17;0.30;;;0.30;;
4186;SDS011;2107;52.306;10.484;2023-02-28T00:03:45;0.40;;;0.40;;
4186;SDS011;2107;52.306;10.484;2023-02-28T00:06:12;0.40;;;0.40;;
4186;SDS011;2107;52.306;10.484;2023-02-28T00:08:39;0.40;;;0.40;;
4186;SDS011;2107;52.306;10.484;2023-02-28T00:11:07;0.40;;;0.40;;
4186;SDS011;2107;52.306;10.484;2023-02-28T00:13:36;0.60;;;0.60;;
4186;SDS011;2107;52.306;10.484;2023-02-28T00:16:05;0.40;;;0.40;;
4186;SDS011;2107;52.306;10.484;2023-02-28T00:18:33;0.40;;;0.40;;
4186;SDS011;2107;52.306;10.484;2023-02-28T00:21:01;0.57;;;0.57;;
4186;SDS011;2107;52.306;10.484;2023-02-28T00:23:28;0.40;;;0.40;;
4186;SDS011;2107;52.306;10.484;2023-02-28T00:25:55;0.60;;;0.60;;
4186;SDS011;2107;52.306;10.484;2023-02-28T00:28:22;0.40;;;0.40;;
4186;SDS011;2107;52.306;10.484;2023-02-28T00:30:49;0.40;;;0.40;;
4186;SDS011;2107;52.306;10.484;2023-02-28T00:33:16;0.30;;;0.30;;
4186;SDS011;2107;52.306;10.484;2023-02-28T00:35:43;0.50;;;0.50;;
4186;SDS011;2107;52.306;10.484;2023-02-28T00:38:12;0.40;;;0.40;;
4186;SDS011;2107;52.306;10.484;2023-02-28T00:40:39;0.40;;;0.40;;
4186;SDS011;2107;52.306;10.484;2023-02-28T00:43:06;0.40;;;0.40;;
4186;SDS011;2107;52.306;10.484;2023-02-28T00:45:33;0.30;;;0.30;;
4186;SDS011;2107;52.306;10.484;2023-02-28T00:48:00;0.30;;;0.30;;
4186;SDS011;2107;52.306;10.484;2023-02-28T00:50:26;0.50;;;0.50;;
4186;SDS011;2107;52.306;10.484;2023-02-28T00:52:53;0.30;;;0.30;;
4186;SDS011;2107;52.306;10.484;2023-02-28T00:55:21;0.30;;;0.30;;
4186;SDS011;2107;52.306;10.484;2023-02-28T00:57:48;0.43;;;0.43;;
4186;SDS011;2107;52.306;10.484;2023-02-28T01:00:15;0.20;;;0.20;;
4186;SDS011;2107;52.306;10.484;2023-02-28T01:02:42;0.40;;;0.40;;
4186;SDS011;2107;52.306;10.484;2023-02-28T01:05:09;0.40;;;0.40;;
4186;SDS011;2107;52.306;10.484;2023-02-28T01:07:36;0.30;;;0.30;;
4186;SDS011;2107;52.306;10.484;2023-02-28T01:10:03;0.50;;;0.50;;
4186;SDS011;2107;52.306;10.484;2023-02-28T01:12:32;0.30;;;0.30;;
4186;SDS011;2107;52.306;10.484;2023-02-28T01:14:59;0.30;;;0.30;;
4186;SDS011;2107;52.306;10.484;2023-02-28T01:17:26;0.20;;;0.20;;
4186;SDS011;2107;52.306;10.484;2023-02-28T01:19:53;0.30;;;0.30;;
4186;SDS011;2107;52.306;10.484;2023-02-28T01:22:20;0.20;;;0.20;;
4186;SDS011;2107;52.306;10.484;2023-02-28T01:24:47;0.30;;;0.30;;
4186;SDS011;2107;52.306;10.484;2023-02-28T01:27:14;0.20;;;0.20;;
4186;SDS011;2107;52.306;10.484;2023-02-28T01:29:42;0.20;;;0.20;;
4186;SDS011;2107;52.306;10.484;2023-02-28T01:32:09;0.27;;;0.27;;
4186;SDS011;2107;52.306;10.484;2023-02-28T01:34:36;0.20;;;0.20;;
4186;SDS011;2107;52.306;10.484;2023-02-28T01:37:03;0.20;;;0.20;;
4186;SDS011;2107;52.306;10.484;2023-02-28T01:39:30;0.20;;;0.20;;
4186;SDS011;2107;52.306;10.484;2023-02-28T01:41:56;0.20;;;0.20;;
4186;SDS011;2107;52.306;10.484;2023-02-28T01:47:27;0.20;;;0.20;;
4186;SDS011;2107;52.306;10.484;2023-02-28T01:49:56;0.20;;;0.20;;
4186;SDS011;2107;52.306;10.484;2023-02-28T01:52:24;0.20;;;0.20;;
4186;SDS011;2107;52.306;10.484;2023-02-28T01:54:52;0.20;;;0.20;;
4186;SDS011;2107;52.306;10.484;2023-02-28T01:57:22;0.20;;;0.20;;
4186;SDS011;2107;52.306;10.484;2023-02-28T01:59:55;0.20;;;0.20;;
4186;SDS011;2107;52.306;10.484;2023-02-28T02:02:26;0.20;;;0.20;;
4186;SDS011;2107;52.306;10.484;2023-02-28T02:04:55;0.20;;;0.20;;
4186;SDS011;2107;52.306;10.484;2023-02-28T02:07:26;0.20;;;0.20;;
4186;SDS011;2107;52.306;10.484;2023-02-28T02:10:01;0.20;;;0.20;;
4186;SDS011;2107;52.306;10.484;2023-02-28T02:12:32;0.20;;;0.20;;
4186;SDS011;2107;52.306;10.484;2023-02-28T02:15:15;0.20;;;0.20;;
4186;SDS011;2107;52.306;10.484;2023-02-28T02:17:48;0.20;;;0.20;;
4186;SDS011;2107;52.306;10.484;2023-02-28T02:23:28;0.20;;;0.20;;
4186;SDS011;2107;52.306;10.484;2023-02-28T02:32:12;0.10;;;0.10;;
4186;SDS011;2107;52.306;10.484;2023-02-28T02:35:02;0.10;;;0.10;;
4186;SDS011;2107;52.306;10.484;2023-02-28T02:37:38;0.10;;;0.10;;
4186;SDS011;2107;52.306;10.484;2023-02-28T02:40:10;0.10;;;0.10;;
4186;SDS011;2107;52.306;10.484;2023-02-28T02:42:41;0.10;;;0.10;;
4186;SDS011;2107;52.306;10.484;2023-02-28T02:45:16;0.10;;;0.10;;
4186;SDS011;2107;52.306;10.484;2023-02-28T02:47:47;0.10;;;0.10;;
4186;SDS011;2107;52.306;10.484;2023-02-28T02:50:17;0.10;;;0.10;;
4186;SDS011;2107;52.306;10.484;2023-02-28T02:52:49;0.10;;;0.10;;
4186;SDS011;2107;52.306;10.484;2023-02-28T02:55:20;0.10;;;0.10;;
4186;SDS011;2107;52.306;10.484;2023-02-28T02:57:48;0.10;;;0.10;;
4186;SDS011;2107;52.306;10.484;2023-02-28T03:00:19;0.10;;;0.10;;
4186;SDS011;2107;52.306;10.484;2023-02-28T03:02:51;0.10;;;0.10;;
4186;SDS011;2107;52.306;10.484;2023-02-28T03:05:23;0.10;;;0.10;;
4186;SDS011;2107;52.306;10.484;2023-02-28T03:07:52;0.13;;;0.13;;
4186;SDS011;2107;52.306;10.484;2023-02-28T03:10:26;0.10;;;0.10;;
4186;SDS011;2107;52.306;10.484;2023-02-28T03:12:57;0.10;;;0.10;;
4186;SDS011;2107;52.306;10.484;2023-02-28T03:15:35;0.10;;;0.10;;
4186;SDS011;2107;52.306;10.484;2023-02-28T03:18:16;0.10;;;0.10;;
4186;SDS011;2107;52.306;10.484;2023-02-28T03:20:54;0.10;;;0.10;;
4186;SDS011;2107;52.306;10.484;2023-02-28T03:23:30;0.10;;;0.10;;
4186;SDS011;2107;52.306;10.484;2023-02-28T03:26:07;0.10;;;0.10;;
4186;SDS011;2107;52.306;10.484;2023-02-28T03:28:43;0.20;;;0.20;;
4186;SDS011;2107;52.306;10.484;2023-02-28T03:31:19;0.20;;;0.20;;
4186;SDS011;2107;52.306;10.484;2023-02-28T03:33:51;0.10;;;0.10;;
4186;SDS011;2107;52.306;10.484;2023-02-28T03:36:27;0.10;;;0.10;;
4186;SDS011;2107;52.306;10.484;2023-02-28T03:38:56;0.20;;;0.20;;
4186;SDS011;2107;52.306;10.484;2023-02-28T03:41:28;0.20;;;0.20;;
4186;SDS011;2107;52.306;10.484;2023-02-28T03:44:03;0.30;;;0.30;;
4186;SDS011;2107;52.306;10.484;2023-02-28T03:46:36;0.27;;;0.27;;
4186;SDS011;2107;52.306;10.484;2023-02-28T03:49:09;0.20;;;0.20;;
4186;SDS011;2107;52.306;10.484;2023-02-28T03:51:42;0.30;;;0.30;;
4186;SDS011;2107;52.306;10.484;2023-02-28T03:54:11;0.40;;;0.40;;
4186;SDS011;2107;52.306;10.484;2023-02-28T03:56:42;0.30;;;0.30;;
4186;SDS011;2107;52.306;10.484;2023-02-28T03:59:15;0.50;;;0.50;;
4186;SDS011;2107;52.306;10.484;2023-02-28T04:01:47;0.60;;;0.60;;
4186;SDS011;2107;52.306;10.484;2023-02-28T04:04:15;0.40;;;0.40;;
4186;SDS011;2107;52.306;10.484;2023-02-28T04:06:44;0.50;;;0.50;;
4186;SDS011;2107;52.306;10.484;2023-02-28T04:09:12;0.33;;;0.33;;
4186;SDS011;2107;52.306;10.484;2023-02-28T04:11:40;0.50;;;0.50;;
4186;SDS011;2107;52.306;10.484;2023-02-28T04:14:10;0.60;;;0.60;;
4186;SDS011;2107;52.306;10.484;2023-02-28T04:16:38;0.50;;;0.50;;
4186;SDS011;2107;52.306;10.484;2023-02-28T04:19:06;0.60;;;0.60;;
4186;SDS011;2107;52.306;10.484;2023-02-28T04:21:35;0.60;;;0.60;;
4186;SDS011;2107;52.306;10.484;2023-02-28T04:24:05;0.73;;;0.73;;
4186;SDS011;2107;52.306;10.484;2023-02-28T04:26:33;0.70;;;0.70;;
4186;SDS011;2107;52.306;10.484;2023-02-28T04:29:02;0.60;;;0.60;;
4186;SDS011;2107;52.306;10.484;2023-02-28T04:31:30;0.70;;;0.70;;
4186;SDS011;2107;52.306;10.484;2023-02-28T04:33:57;0.70;;;0.70;;
4186;SDS011;2107;52.306;10.484;2023-02-28T04:36:24;0.57;;;0.57;;
4186;SDS011;2107;52.306;10.484;2023-02-28T04:38:51;0.60;;;0.60;;
4186;SDS011;2107;52.306;10.484;2023-02-28T04:41:19;0.70;;;0.70;;
4186;SDS011;2107;52.306;10.484;2023-02-28T04:43:46;0.93;;;0.93;;
4186;SDS011;2107;52.306;10.484;2023-02-28T04:46:13;0.50;;;0.50;;
4186;SDS011;2107;52.306;10.484;2023-02-28T04:48:40;0.80;;;0.80;;
4186;SDS011;2107;52.306;10.484;2023-02-28T04:51:09;0.47;;;0.47;;
4186;SDS011;2107;52.306;10.484;2023-02-28T04:53:38;0.47;;;0.47;;
4186;SDS011;2107;52.306;10.484;2023-02-28T04:56:07;0.30;;;0.30;;
4186;SDS011;2107;52.306;10.484;2023-02-28T04:58:37;0.30;;;0.30;;
4186;SDS011;2107;52.306;10.484;2023-02-28T05:01:05;0.37;;;0.37;;
4186;SDS011;2107;52.306;10.484;2023-02-28T05:03:40;0.30;;;0.30;;
4186;SDS011;2107;52.306;10.484;2023-02-28T05:06:07;0.50;;;0.50;;
4186;SDS011;2107;52.306;10.484;2023-02-28T05:08:34;0.50;;;0.50;;
4186;SDS011;2107;52.306;10.484;2023-02-28T05:11:01;0.50;;;0.50;;
4186;SDS011;2107;52.306;10.484;2023-02-28T05:13:29;0.53;;;0.53;;
4186;SDS011;2107;52.306;10.484;2023-02-28T05:15:57;0.40;;;0.40;;
4186;SDS011;2107;52.306;10.484;2023-02-28T05:18:24;0.50;;;0.50;;
4186;SDS011;2107;52.306;10.484;2023-02-28T05:20:50;0.60;;;0.60;;
4186;SDS011;2107;52.306;10.484;2023-02-28T05:23:17;0.60;;;0.60;;
4186;SDS011;2107;52.306;10.484;2023-02-28T05:25:47;0.60;;;0.60;;
4186;SDS011;2107;52.306;10.484;2023-02-28T05:28:14;0.70;;;0.70;;
4186;SDS011;2107;52.306;10.484;2023-02-28T05:30:41;0.70;;;0.70;;
4186;SDS011;2107;52.306;10.484;2023-02-28T05:33:11;0.80;;;0.80;;
4186;SDS011;2107;52.306;10.484;2023-02-28T05:35:38;0.70;;;0.70;;
4186;SDS011;2107;52.306;10.484;2023-02-28T05:38:05;0.57;;;0.57;;
4186;SDS011;2107;52.306;10.484;2023-02-28T05:40:32;0.60;;;0.60;;
4186;SDS011;2107;52.306;10.484;2023-02-28T05:42:59;0.50;;;0.50;;
4186;SDS011;2107;52.306;10.484;2023-02-28T05:45:26;0.50;;;0.50;;
4186;SDS011;2107;52.306;10.484;2023-02-28T05:47:53;0.50;;;0.50;;
4186;SDS011;2107;52.306;10.484;2023-02-28T05:50:21;0.60;;;0.60;;
4186;SDS011;2107;52.306;10.484;2023-02-28T05:52:49;0.57;;;0.57;;
4186;SDS011;2107;52.306;10.484;2023-02-28T05:55:16;0.60;;;0.60;;
4186;SDS011;2107;52.306;10.484;2023-02-28T05:57:44;0.53;;;0.53;;
4186;SDS011;2107;52.306;10.484;2023-02-28T06:00:12;0.50;;;0.50;;
4186;SDS011;2107;52.306;10.484;2023-02-28T06:02:40;0.40;;;0.40;;
4186;SDS011;2107;52.306;10.484;2023-02-28T06:05:10;0.40;;;0.40;;
4186;SDS011;2107;52.306;10.484;2023-02-28T06:07:42;0.30;;;0.30;;
4186;SDS011;2107;52.306;10.484;2023-02-28T06:10:10;0.20;;;0.20;;
4186;SDS011;2107;52.306;10.484;2023-02-28T06:12:37;0.20;;;0.20;;
4186;SDS011;2107;52.306;10.484;2023-02-28T06:15:06;0.20;;;0.20;;
4186;SDS011;2107;52.306;10.484;2023-02-28T06:17:36;0.20;;;0.20;;
4186;SDS011;2107;52.306;10.484;2023-02-28T06:20:03;0.20;;;0.20;;
4186;SDS011;2107;52.306;10.484;2023-02-28T06:22:31;0.20;;;0.20;;
4186;SDS011;2107;52.306;10.484;2023-02-28T06:24:59;0.20;;;0.20;;
4186;SDS011;2107;52.306;10.484;2023-02-28T06:27:26;0.20;;;0.20;;
4186;SDS011;2107;52.306;10.484;2023-02-28T06:29:53;0.20;;;0.20;;
4186;SDS011;2107;52.306;10.484;2023-02-28T06:32:21;0.20;;;0.20;;
4186;SDS011;2107;52.306;10.484;2023-02-28T06:34:48;0.20;;;0.20;;
4186;SDS011;2107;52.306;10.484;2023-02-28T06:37:15;0.20;;;0.20;;
4186;SDS011;2107;52.306;10.484;2023-02-28T06:39:42;0.20;;;0.20;;
4186;SDS011;2107;52.306;10.484;2023-02-28T06:42:10;0.20;;;0.20;;
4186;SDS011;2107;52.306;10.484;2023-02-28T06:44:38;0.20;;;0.20;;
4186;SDS011;2107;52.306;10.484;2023-02-28T06:47:05;0.20;;;0.20;;
4186;SDS011;2107;52.306;10.484;2023-02-28T06:49:32;0.10;;;0.10;;
4186;SDS011;2107;52.306;10.484;2023-02-28T06:52:00;0.20;;;0.20;;
4186;SDS011;2107;52.306;10.484;2023-02-28T06:54:27;0.10;;;0.10;;
4186;SDS011;2107;52.306;10.484;2023-02-28T06:56:54;0.10;;;0.10;;
4186;SDS011;2107;52.306;10.484;2023-02-28T06:59:22;0.10;;;0.10;;
4186;SDS011;2107;52.306;10.484;2023-02-28T07:01:49;0.10;;;0.10;;
4186;SDS011;2107;52.306;10.484;2023-02-28T07:04:17;0.20;;;0.20;;
4186;SDS011;2107;52.306;10.484;2023-02-28T07:06:43;0.20;;;0.20;;
4186;SDS011;2107;52.306;10.484;2023-02-28T07:09:10;0.30;;;0.30;;
4186;SDS011;2107;52.306;10.484;2023-02-28T07:11:38;0.30;;;0.30;;
4186;SDS011;2107;52.306;10.484;2023-02-28T07:14:07;0.30;;;0.30;;
4186;SDS011;2107;52.306;10.484;2023-02-28T07:16:36;0.30;;;0.30;;
4186;SDS011;2107;52.306;10.484;2023-02-28T07:19:03;0.50;;;0.50;;
4186;SDS011;2107;52.306;10.484;2023-02-28T07:21:29;0.60;;;0.60;;
4186;SDS011;2107;52.306;10.484;2023-02-28T07:23:56;0.60;;;0.60;;
4186;SDS011;2107;52.306;10.484;2023-02-28T07:26:23;0.87;;;0.87;;
4186;SDS011;2107;52.306;10.484;2023-02-28T07:28:50;0.60;;;0.60;;
4186;SDS011;2107;52.306;10.484;2023-02-28T07:31:17;0.70;;;0.70;;
4186;SDS011;2107;52.306;10.484;2023-02-28T07:33:46;0.70;;;0.70;;
4186;SDS011;2107;52.306;10.484;2023-02-28T07:36:13;0.70;;;0.70;;
4186;SDS011;2107;52.306;10.484;2023-02-28T07:38:43;0.80;;;0.80;;
4186;SDS011;2107;52.306;10.484;2023-02-28T07:41:13;0.60;;;0.60;;
4186;SDS011;2107;52.306;10.484;2023-02-28T07:43:39;0.70;;;0.70;;
4186;SDS011;2107;52.306;10.484;2023-02-28T07:46:10;0.70;;;0.70;;
4186;SDS011;2107;52.306;10.484;2023-02-28T07:48:40;0.60;;;0.60;;
4186;SDS011;2107;52.306;10.484;2023-02-28T07:51:08;0.70;;;0.70;;
4186;SDS011;2107;52.306;10.484;2023-02-28T07:53:35;0.50;;;0.50;;
4186;SDS011;2107;52.306;10.484;2023-02-28T07:56:02;0.53;;;0.53;;
4186;SDS011;2107;52.306;10.484;2023-02-28T07:58:29;0.60;;;0.60;;
4186;SDS011;2107;52.306;10.484;2023-02-28T08:00:57;0.70;;;0.70;;
4186;SDS011;2107;52.306;10.484;2023-02-28T08:03:30;1.00;;;1.00;;
4186;SDS011;2107;52.306;10.484;2023-02-28T08:05:57;0.80;;;0.80;;
4186;SDS011;2107;52.306;10.484;2023-02-28T08:08:25;0.90;;;0.90;;
4186;SDS011;2107;52.306;10.484;2023-02-28T08:10:54;0.90;;;0.90;;
4186;SDS011;2107;52.306;10.484;2023-02-28T08:13:21;0.97;;;0.97;;
4186;SDS011;2107;52.306;10.484;2023-02-28T08:15:47;1.10;;;1.10;;
4186;SDS011;2107;52.306;10.484;2023-02-28T08:18:14;0.90;;;0.90;;
4186;SDS011;2107;52.306;10.484;2023-02-28T08:20:41;0.87;;;0.87;;
4186;SDS011;2107;52.306;10.484;2023-02-28T08:23:08;0.90;;;0.90;;
4186;SDS011;2107;52.306;10.484;2023-02-28T08:25:36;0.90;;;0.90;;
4186;SDS011;2107;52.306;10.484;2023-02-28T08:28:03;0.90;;;0.90;;
4186;SDS011;2107;52.306;10.484;2023-02-28T08:30:30;0.90;;;0.90;;
4186;SDS011;2107;52.306;10.484;2023-02-28T08:32:57;0.90;;;0.90;;
4186;SDS011;2107;52.306;10.484;2023-02-28T08:35:24;0.90;;;0.90;;
4186;SDS011;2107;52.306;10.484;2023-02-28T08:37:51;0.80;;;0.80;;
4186;SDS011;2107;52.306;10.484;2023-02-28T08:40:17;0.70;;;0.70;;
4186;SDS011;2107;52.306;10.484;2023-02-28T08:42:46;0.90;;;0.90;;
4186;SDS011;2107;52.306;10.484;2023-02-28T08:45:14;0.70;;;0.70;;
4186;SDS011;2107;52.306;10.484;2023-02-28T08:47:41;0.80;;;0.80;;
4186;SDS011;2107;52.306;10.484;2023-02-28T08:50:08;0.70;;;0.70;;
4186;SDS011;2107;52.306;10.484;2023-02-28T08:52:36;0.80;;;0.80;;
4186;SDS011;2107;52.306;10.484;2023-02-28T08:55:04;0.80;;;0.80;;
4186;SDS011;2107;52.306;10.484;2023-02-28T08:57:31;0.80;;;0.80;;
4186;SDS011;2107;52.306;10.484;2023-02-28T09:00:00;0.70;;;0.70;;
4186;SDS011;2107;52.306;10.484;2023-02-28T09:02:29;0.90;;;0.90;;
4186;SDS011;2107;52.306;10.484;2023-02-28T09:04:57;0.57;;;0.57;;
4186;SDS011;2107;52.306;10.484;2023-02-28T09:07:24;0.70;;;0.70;;
4186;SDS011;2107;52.306;10.484;2023-02-28T09:09:51;0.50;;;0.50;;
4186;SDS011;2107;52.306;10.484;2023-02-28T09:12:20;0.70;;;0.70;;
4186;SDS011;2107;52.306;10.484;2023-02-28T09:14:47;0.70;;;0.70;;
4186;SDS011;2107;52.306;10.484;2023-02-28T09:17:16;0.67;;;0.67;;
4186;SDS011;2107;52.306;10.484;2023-02-28T09:19:43;0.80;;;0.80;;
4186;SDS011;2107;52.306;10.484;2023-02-28T09:22:10;0.60;;;0.60;;
4186;SDS011;2107;52.306;10.484;2023-02-28T09:24:37;0.60;;;0.60;;
4186;SDS011;2107;52.306;10.484;2023-02-28T09:27:04;0.60;;;0.60;;
4186;SDS011;2107;52.306;10.484;2023-02-28T09:29:31;0.50;;;0.50;;
4186;SDS011;2107;52.306;10.484;2023-02-28T09:31:59;0.50;;;0.50;;
4186;SDS011;2107;52.306;10.484;2023-02-28T09:34:28;0.60;;;0.60;;
4186;SDS011;2107;52.306;10.484;2023-02-28T09:36:56;0.50;;;0.50;;
4186;SDS011;2107;52.306;10.484;2023-02-28T09:39:23;0.40;;;0.40;;
4186;SDS011;2107;52.306;10.484;2023-02-28T09:41:51;0.60;;;0.60;;
4186;SDS011;2107;52.306;10.484;2023-02-28T09:44:22;0.60;;;0.60;;
4186;SDS011;2107;52.306;10.484;2023-02-28T09:46:56;0.70;;;0.70;;
4186;SDS011;2107;52.306;10.484;2023-02-28T09:49:27;0.60;;;0.60;;
4186;SDS011;2107;52.306;10.484;2023-02-28T09:52:01;0.60;;;0.60;;
4186;SDS011;2107;52.306;10.484;2023-02-28T09:54:30;0.60;;;0.60;;
4186;SDS011;2107;52.306;10.484;2023-02-28T09:56:59;0.60;;;0.60;;
4186;SDS011;2107;52.306;10.484;2023-02-28T09:59:36;0.60;;;0.60;;
4186;SDS011;2107;52.306;10.484;2023-02-28T10:02:17;0.70;;;0.70;;
4186;SDS011;2107;52.306;10.484;2023-02-28T10:04:53;0.70;;;0.70;;
4186;SDS011;2107;52.306;10.484;2023-02-28T10:07:31;0.60;;;0.60;;
4186;SDS011;2107;52.306;10.484;2023-02-28T10:12:47;0.60;;;0.60;;
4186;SDS011;2107;52.306;10.484;2023-02-28T10:15:17;0.57;;;0.57;;
4186;SDS011;2107;52.306;10.484;2023-02-28T10:17:45;0.60;;;0.60;;
4186;SDS011;2107;52.306;10.484;2023-02-28T10:20:17;0.40;;;0.40;;
4186;SDS011;2107;52.306;10.484;2023-02-28T10:22:50;0.60;;;0.60;;
4186;SDS011;2107;52.306;10.484;2023-02-28T10:25:24;0.60;;;0.60;;
4186;SDS011;2107;52.306;10.484;2023-02-28T10:27:52;0.50;;;0.50;;
4186;SDS011;2107;52.306;10.484;2023-02-28T10:30:22;0.50;;;0.50;;
4186;SDS011;2107;52.306;10.484;2023-02-28T10:32:50;0.50;;;0.50;;
4186;SDS011;2107;52.306;10.484;2023-02-28T10:35:21;0.50;;;0.50;;
4186;SDS011;2107;52.306;10.484;2023-02-28T10:37:50;0.80;;;0.80;;
4186;SDS011;2107;52.306;10.484;2023-02-28T10:40:30;0.70;;;0.70;;
4186;SDS011;2107;52.306;10.484;2023-02-28T10:42:59;0.80;;;0.80;;
4186;SDS011;2107;52.306;10.484;2023-02-28T10:45:27;1.00;;;1.00;;
4186;SDS011;2107;52.306;10.484;2023-02-28T10:47:57;1.00;;;1.00;;
4186;SDS011;2107;52.306;10.484;2023-02-28T10:50:29;1.10;;;1.10;;
4186;SDS011;2107;52.306;10.484;2023-02-28T10:53:05;0.70;;;0.70;;
4186;SDS011;2107;52.306;10.484;2023-02-28T10:55:41;0.70;;;0.70;;
4186;SDS011;2107;52.306;10.484;2023-02-28T10:58:18;0.50;;;0.50;;
4186;SDS011;2107;52.306;10.484;2023-02-28T11:00:47;0.70;;;0.70;;
4186;SDS011;2107;52.306;10.484;2023-02-28T11:03:22;0.60;;;0.60;;
4186;SDS011;2107;52.306;10.484;2023-02-28T11:05:52;0.63;;;0.63;;
4186;SDS011;2107;52.306;10.484;2023-02-28T11:08:19;0.57;;;0.57;;
4186;SDS011;2107;52.306;10.484;2023-02-28T11:10:47;0.80;;;0.80;;
4186;SDS011;2107;52.306;10.484;2023-02-28T11:13:20;0.80;;;0.80;;
4186;SDS011;2107;52.306;10.484;2023-02-28T11:15:51;0.60;;;0.60;;
4186;SDS011;2107;52.306;10.484;2023-02-28T11:18:22;0.60;;;0.60;;
4186;SDS011;2107;52.306;10.484;2023-02-28T11:20:55;0.70;;;0.70;;
4186;SDS011;2107;52.306;10.484;2023-02-28T11:23:24;0.60;;;0.60;;
4186;SDS011;2107;52.306;10.484;2023-02-28T11:25:55;0.60;;;0.60;;
4186;SDS011;2107;52.306;10.484;2023-02-28T11:28:25;0.70;;;0.70;;
4186;SDS011;2107;52.306;10.484;2023-02-28T11:31:04;0.50;;;0.50;;
4186;SDS011;2107;52.306;10.484;2023-02-28T11:33:45;1.20;;;1.20;;
4186;SDS011;2107;52.306;10.484;2023-02-28T11:36:18;1.00;;;1.00;;
4186;SDS011;2107;52.306;10.484;2023-02-28T11:38:47;1.10;;;1.10;;
4186;SDS011;2107;52.306;10.484;2023-02-28T11:44:16;1.00;;;1.00;;
4186;SDS011;2107;52.306;10.484;2023-02-28T11:46:56;1.00;;;1.00;;
4186;SDS011;2107;52.306;10.484;2023-02-28T11:49:32;1.03;;;1.03;;
4186;SDS011;2107;52.306;10.484;2023-02-28T11:52:06;1.00;;;1.00;;
4186;SDS011;2107;52.306;10.484;2023-02-28T11:54:59;1.10;;;1.10;;
4186;SDS011;2107;52.306;10.484;2023-02-28T11:57:40;0.90;;;0.90;;
4186;SDS011;2107;52.306;10.484;2023-02-28T12:00:26;0.80;;;0.80;;
4186;SDS011;2107;52.306;10.484;2023-02-28T12:03:12;0.50;;;0.50;;
4186;SDS011;2107;52.306;10.484;2023-02-28T12:05:54;0.70;;;0.70;;
4186;SDS011;2107;52.306;10.484;2023-02-28T12:08:36;0.60;;;0.60;;
4186;SDS011;2107;52.306;10.484;2023-02-28T12:11:14;0.60;;;0.60;;
4186;SDS011;2107;52.306;10.484;2023-02-28T12:13:52;0.60;;;0.60;;
4186;SDS011;2107;52.306;10.484;2023-02-28T12:16:36;0.80;;;0.80;;
4186;SDS011;2107;52.306;10.484;2023-02-28T12:19:14;1.00;;;1.00;;
4186;SDS011;2107;52.306;10.484;2023-02-28T12:21:49;0.90;;;0.90;;
4186;SDS011;2107;52.306;10.484;2023-02-28T12:24:47;1.00;;;1.00;;
4186;SDS011;2107;52.306;10.484;2023-02-28T12:27:22;1.10;;;1.10;;
4186;SDS011;2107;52.306;10.484;2023-02-28T12:29:54;1.00;;;1.00;;
4186;SDS011;2107;52.306;10.484;2023-02-28T12:32:25;1.03;;;1.03;;
4186;SDS011;2107;52.306;10.484;2023-02-28T12:34:57;1.00;;;1.00;;
4186;SDS011;2107;52.306;10.484;2023-02-28T12:37:27;1.00;;;1.00;;
4186;SDS011;2107;52.306;10.484;2023-02-28T12:40:03;1.00;;;1.00;;
4186;SDS011;2107;52.306;10.484;2023-02-28T12:42:36;0.90;;;0.90;;
4186;SDS011;2107;52.306;10.484;2023-02-28T12:45:09;1.00;;;1.00;;
4186;SDS011;2107;52.306;10.484;2023-02-28T12:47:40;1.00;;;1.00;;
4186;SDS011;2107;52.306;10.484;2023-02-28T12:50:11;0.90;;;0.90;;
4186;SDS011;2107;52.306;10.484;2023-02-28T12:52:40;1.00;;;1.00;;
4186;SDS011;2107;52.306;10.484;2023-02-28T12:55:15;1.00;;;1.00;;
4186;SDS011;2107;52.306;10.484;2023-02-28T12:57:52;1.10;;;1.10;;
4186;SDS011;2107;52.306;10.484;2023-02-28T13:00:28;1.30;;;1.30;;
4186;SDS011;2107;52.306;10.484;2023-02-28T13:03:17;1.30;;;1.30;;
4186;SDS011;2107;52.306;10.484;2023-02-28T13:09:04;1.20;;;1.20;;
4186;SDS011;2107;52.306;10.484;2023-02-28T13:11:39;1.10;;;1.10;;
4186;SDS011;2107;52.306;10.484;2023-02-28T13:17:02;1.03;;;1.03;;
4186;SDS011;2107;52.306;10.484;2023-02-28T13:19:37;1.20;;;1.20;;
4186;SDS011;2107;52.306;10.484;2023-02-28T13:22:10;1.20;;;1.20;;
4186;SDS011;2107;52.306;10.484;2023-02-28T13:24:45;1.20;;;1.20;;
4186;SDS011;2107;52.306;10.484;2023-02-28T13:33:23;1.20;;;1.20;;
4186;SDS011;2107;52.306;10.484;2023-02-28T13:36:01;1.60;;;1.60;;
4186;SDS011;2107;52.306;10.484;2023-02-28T13:38:35;1.20;;;1.20;;
4186;SDS011;2107;52.306;10.484;2023-02-28T13:44:22;1.30;;;1.30;;
4186;SDS011;2107;52.306;10.484;2023-02-28T13:50:18;0.93;;;0.93;;
4186;SDS011;2107;52.306;10.484;2023-02-28T13:52:51;1.10;;;1.10;;
4186;SDS011;2107;52.306;10.484;2023-02-28T13:55:27;1.20;;;1.20;;
4186;SDS011;2107;52.306;10.484;2023-02-28T13:58:05;0.90;;;0.90;;
4186;SDS011;2107;52.306;10.484;2023-02-28T14:01:00;1.30;;;1.30;;
4186;SDS011;2107;52.306;10.484;2023-02-28T14:03:41;1.30;;;1.30;;
4186;SDS011;2107;52.306;10.484;2023-02-28T14:06:22;1.30;;;1.30;;
4186;SDS011;2107;52.306;10.484;2023-02-28T14:08:55;1.00;;;1.00;;
4186;SDS011;2107;52.306;10.484;2023-02-28T14:11:27;1.10;;;1.10;;
4186;SDS011;2107;52.306;10.484;2023-02-28T14:13:56;1.00;;;1.00;;
4186;SDS011;2107;52.306;10.484;2023-02-28T14:16:26;1.40;;;1.40;;
4186;SDS011;2107;52.306;10.484;2023-02-28T14:18:56;1.50;;;1.50;;
4186;SDS011;2107;52.306;10.484;2023-02-28T14:21:27;1.30;;;1.30;;
4186;SDS011;2107;52.306;10.484;2023-02-28T14:24:07;1.30;;;1.30;;
4186;SDS011;2107;52.306;10.484;2023-02-28T14:27:08;1.00;;;1.00;;
4186;SDS011;2107;52.306;10.484;2023-02-28T14:29:56;1.23;;;1.23;;
4186;SDS011;2107;52.306;10.484;2023-02-28T14:32:49;0.93;;;0.93;;
4186;SDS011;2107;52.306;10.484;2023-02-28T14:35:29;1.10;;;1.10;;
4186;SDS011;2107;52.306;10.484;2023-02-28T14:38:17;1.10;;;1.10;;
4186;SDS011;2107;52.306;10.484;2023-02-28T14:40:48;1.20;;;1.20;;
4186;SDS011;2107;52.306;10.484;2023-02-28T14:43:20;1.20;;;1.20;;
4186;SDS011;2107;52.306;10.484;2023-02-28T14:45:49;1.10;;;1.10;;
4186;SDS011;2107;52.306;10.484;2023-02-28T14:48:19;1.10;;;1.10;;
4186;SDS011;2107;52.306;10.484;2023-02-28T14:50:48;1.30;;;1.30;;
4186;SDS011;2107;52.306;10.484;2023-02-28T14:53:17;1.00;;;1.00;;
4186;SDS011;2107;52.306;10.484;2023-02-28T14:55:46;1.00;;;1.00;;
4186;SDS011;2107;52.306;10.484;2023-02-28T14:58:21;0.90;;;0.90;;
4186;SDS011;2107;52.306;10.484;2023-02-28T15:00:50;0.70;;;0.70;;
4186;SDS011;2107;52.306;10.484;2023-02-28T15:03:21;1.10;;;1.10;;
4186;SDS011;2107;52.306;10.484;2023-02-28T15:05:53;1.20;;;1.20;;
4186;SDS011;2107;52.306;10.484;2023-02-28T15:08:22;1.20;;;1.20;;
4186;SDS011;2107;52.306;10.484;2023-02-28T15:10:51;1.10;;;1.10;;
4186;SDS011;2107;52.306;10.484;2023-02-28T15:13:21;1.30;;;1.30;;
4186;SDS011;2107;52.306;10.484;2023-02-28T15:15:50;1.30;;;1.30;;
4186;SDS011;2107;52.306;10.484;2023-02-28T15:18:26;1.03;;;1.03;;
4186;SDS011;2107;52.306;10.484;2023-02-28T15:20:58;1.10;;;1.10;;
4186;SDS011;2107;52.306;10.484;2023-02-28T15:23:28;1.20;;;1.20;;
4186;SDS011;2107;52.306;10.484;2023-02-28T15:25:56;1.20;;;1.20;;
4186;SDS011;2107;52.306;10.484;2023-02-28T15:28:23;1.23;;;1.23;;
4186;SDS011;2107;52.306;10.484;2023-02-28T15:30:52;1.60;;;1.60;;
4186;SDS011;2107;52.306;10.484;2023-02-28T15:33:22;1.30;;;1.30;;
4186;SDS011;2107;52.306;10.484;2023-02-28T15:36:02;1.40;;;1.40;;
4186;SDS011;2107;52.306;10.484;2023-02-28T15:38:32;1.40;;;1.40;;
4186;SDS011;2107;52.306;10.484;2023-02-28T15:41:00;1.43;;;1.43;;
4186;SDS011;2107;52.306;10.484;2023-02-28T15:43:28;1.40;;;1.40;;
4186;SDS011;2107;52.306;10.484;2023-02-28T15:45:56;1.40;;;1.40;;
4186;SDS011;2107;52.306;10.484;2023-02-28T15:48:26;1.20;;;1.20;;
4186;SDS011;2107;52.306;10.484;2023-02-28T15:50:57;1.40;;;1.40;;
4186;SDS011;2107;52.306;10.484;2023-02-28T15:53:29;1.30;;;1.30;;
4186;SDS011;2107;52.306;10.484;2023-02-28T15:55:59;1.20;;;1.20;;
4186;SDS011;2107;52.306;10.484;2023-02-28T15:58:28;1.60;;;1.60;;